Time;durP1;ratioP1;P1;durP2;ratioP2;P2;SDS_P1;SDS_P2;PMS_P1;PMS_P2;Temp;Humidity;BMP_temperature;BMP_pressure;BME280_temperature;BME280_humidity;BME280_pressure;Samples;Min_cycle;Max_cycle;Signal;HPM_P1;HPM_P2
2022/09/09 00:01:37;;;;;;;2.63;2.40;;;;;;;;;;10353968;28;20063;-62
2022/09/09 00:06:36;;;;;;;4.40;2.65;;;;;;;;;;10346900;28;20076;-61
2022/09/09 00:11:37;;;;;;;5.50;2.60;;;;;;;;;;10325705;28;20044;-61
2022/09/09 00:16:41;;;;;;;4.75;2.60;;;;;;;;;;10345328;28;20064;-61
2022/09/09 00:21:44;;;;;;;3.13;2.72;;;;;;;;;;10345155;28;20071;-60
2022/09/09 00:26:44;;;;;;;2.30;2.10;;;;;;;;;;10348733;28;20072;-63
2022/09/09 00:31:44;;;;;;;5.28;2.40;;;;;;;;;;10322459;28;20421;-62
2022/09/09 00:36:43;;;;;;;4.38;2.83;;;;;;;;;;10323736;28;20041;-61
2022/09/09 00:41:56;;;;;;;2.90;2.60;;;;;;;;;;10345133;28;20067;-61
2022/09/09 00:47:00;;;;;;;5.97;2.80;;;;;;;;;;10323224;28;20475;-60
2022/09/09 00:52:02;;;;;;;4.88;2.80;;;;;;;;;;10342315;28;20076;-61
2022/09/09 00:57:11;;;;;;;6.13;2.70;;;;;;;;;;10342413;28;20071;-61
2022/09/09 01:02:16;;;;;;;2.83;2.28;;;;;;;;;;10343812;28;20427;-61
2022/09/09 01:07:16;;;;;;;4.20;2.63;;;;;;;;;;10344817;28;20076;-61
2022/09/09 01:12:16;;;;;;;2.70;2.50;;;;;;;;;;10325399;28;20041;-60
2022/09/09 01:17:19;;;;;;;;;;;;;;;;;;10328375;28;20531;-61
2022/09/09 01:22:30;;;;;;;4.88;2.40;;;;;;;;;;10325989;28;20404;-60
2022/09/09 01:27:31;;;;;;;4.57;2.22;;;;;;;;;;10321396;28;20076;-61
2022/09/09 01:32:40;;;;;;;3.00;2.38;;;;;;;;;;10323080;28;20052;-62
2022/09/09 01:37:40;;;;;;;3.70;2.67;;;;;;;;;;10321878;28;20040;-61
2022/09/09 01:42:39;;;;;;;8.68;2.78;;;;;;;;;;10321620;28;20051;-61
2022/09/09 01:47:38;;;;;;;4.07;2.30;;;;;;;;;;10341422;28;20073;-61
2022/09/09 01:52:50;;;;;;;4.32;2.70;;;;;;;;;;10320797;28;20078;-61
2022/09/09 01:57:57;;;;;;;3.30;2.30;;;;;;;;;;10338315;28;20059;-61
2022/09/09 02:02:59;;;;;;;4.07;2.77;;;;;;;;;;10337696;28;20324;-61
2022/09/09 02:08:08;;;;;;;4.55;3.13;;;;;;;;;;10337601;28;20090;-60
2022/09/09 02:13:23;;;;;;;2.72;2.45;;;;;;;;;;10322196;28;20425;-61
2022/09/09 02:18:24;;;;;;;4.40;2.55;;;;;;;;;;10342104;28;20080;-60
2022/09/09 02:23:22;;;;;;;4.05;2.50;;;;;;;;;;10337409;28;20048;-59
2022/09/09 02:28:28;;;;;;;5.25;2.67;;;;;;;;;;10337365;28;20048;-60
2022/09/09 02:33:28;;;;;;;2.60;2.00;;;;;;;;;;10336687;28;20067;-61
2022/09/09 02:38:27;;;;;;;4.63;2.47;;;;;;;;;;10341358;28;20241;-60
2022/09/09 02:43:34;;;;;;;2.90;2.60;;;;;;;;;;10323266;28;20052;-61
2022/09/09 02:48:39;;;;;;;3.80;2.58;;;;;;;;;;10340592;28;20075;-60
2022/09/09 02:53:41;;;;;;;3.00;2.70;;;;;;;;;;10355088;28;20047;-60
2022/09/09 02:58:41;;;;;;;4.38;2.58;;;;;;;;;;10336894;28;20051;-61
2022/09/09 03:03:41;;;;;;;4.15;2.65;;;;;;;;;;10337196;28;20059;-61
2022/09/09 03:08:43;;;;;;;3.33;2.42;;;;;;;;;;10324977;28;20087;-61
2022/09/09 03:13:55;;;;;;;4.50;2.70;;;;;;;;;;10326252;28;20052;-60
2022/09/09 03:18:55;;;;;;;4.03;2.63;;;;;;;;;;10344663;28;20091;-62
2022/09/09 03:23:54;;;;;;;2.53;2.33;;;;;;;;;;10349074;28;20087;-61
2022/09/09 03:28:54;;;;;;;8.35;3.70;;;;;;;;;;10347609;28;20079;-61
2022/09/09 03:33:54;;;;;;;3.85;2.08;;;;;;;;;;10343801;28;20060;-61
2022/09/09 03:38:52;;;;;;;3.88;3.03;;;;;;;;;;10361512;28;20067;-61
2022/09/09 03:43:51;;;;;;;4.00;2.78;;;;;;;;;;10361358;28;20051;-60
2022/09/09 03:48:53;;;;;;;7.55;3.40;;;;;;;;;;10329356;28;20087;-61
2022/09/09 03:53:51;;;;;;;4.22;2.90;;;;;;;;;;10343528;28;20067;-60
2022/09/09 03:58:49;;;;;;;3.72;3.20;;;;;;;;;;10346897;28;20071;-61
2022/09/09 04:03:47;;;;;;;5.45;2.70;;;;;;;;;;10328525;28;20081;-59
2022/09/09 04:08:48;;;;;;;6.55;3.00;;;;;;;;;;10346145;28;20513;-60
2022/09/09 04:13:47;;;;;;;4.30;3.13;;;;;;;;;;10327917;28;20079;-60
2022/09/09 04:18:45;;;;;;;13.63;6.72;;;;;;;;;;10327405;28;20450;-60
2022/09/09 04:23:47;;;;;;;4.03;3.55;;;;;;;;;;10330184;28;20056;-60
2022/09/09 04:28:45;;;;;;;4.20;2.40;;;;;;;;;;10345622;28;20072;-61
2022/09/09 04:33:49;;;;;;;4.63;2.13;;;;;;;;;;10303192;28;20099;-60
2022/09/09 04:38:49;;;;;;;3.35;3.00;;;;;;;;;;10304268;28;20044;-60
2022/09/09 04:43:48;;;;;;;6.38;3.60;;;;;;;;;;10306371;28;20075;-60
2022/09/09 04:48:49;;;;;;;3.67;2.55;;;;;;;;;;10315034;28;20078;-61
2022/09/09 04:53:50;;;;;;;3.90;2.72;;;;;;;;;;10290883;28;20580;-62
2022/09/09 04:58:50;;;;;;;16.33;14.48;;;;;;;;;;10297402;28;20068;-63
2022/09/09 05:03:51;;;;;;;7.47;5.65;;;;;;;;;;10287675;28;20076;-61
2022/09/09 05:08:54;;;;;;;6.07;2.67;;;;;;;;;;10287753;28;20485;-62
2022/09/09 05:13:58;;;;;;;5.55;2.42;;;;;;;;;;10288138;28;20487;-62
2022/09/09 05:18:58;;;;;;;4.05;2.67;;;;;;;;;;10283057;28;20064;-63
2022/09/09 05:24:06;;;;;;;5.57;2.42;;;;;;;;;;10307558;28;20048;-62
2022/09/09 05:29:05;;;;;;;8.35;3.03;;;;;;;;;;10290702;28;20072;-62
2022/09/09 05:34:04;;;;;;;3.83;3.03;;;;;;;;;;10288501;28;20055;-62
2022/09/09 05:39:03;;;;;;;7.40;2.90;;;;;;;;;;10289094;28;20064;-60
2022/09/09 05:44:05;;;;;;;5.97;2.97;;;;;;;;;;10288725;28;20083;-62
2022/09/09 05:49:08;;;;;;;3.45;2.38;;;;;;;;;;10316894;28;20516;-62
2022/09/09 05:54:07;;;;;;;5.43;2.83;;;;;;;;;;10295002;28;20056;-63
2022/09/09 05:59:12;;;;;;;4.35;2.53;;;;;;;;;;10297336;28;20091;-62
2022/09/09 06:04:10;;;;;;;2.78;2.58;;;;;;;;;;10309586;28;20060;-63
2022/09/09 06:09:11;;;;;;;8.13;3.17;;;;;;;;;;10288064;28;20083;-61
2022/09/09 06:14:13;;;;;;;2.70;2.40;;;;;;;;;;10287730;28;20076;-62
2022/09/09 06:19:15;;;;;;;3.83;2.63;;;;;;;;;;10297649;28;20462;-63
2022/09/09 06:24:17;;;;;;;6.53;4.13;;;;;;;;;;10303767;28;20060;-62
2022/09/09 06:29:16;;;;;;;9.40;2.83;;;;;;;;;;10305014;28;20076;-62
2022/09/09 06:34:16;;;;;;;4.65;2.60;;;;;;;;;;10290502;28;20056;-62
2022/09/09 06:39:19;;;;;;;5.25;2.50;;;;;;;;;;10293086;28;20140;-62
2022/09/09 06:44:19;;;;;;;10.55;3.05;;;;;;;;;;10285344;28;20040;-62
2022/09/09 06:49:17;;;;;;;5.88;2.60;;;;;;;;;;10286155;28;20429;-63
2022/09/09 06:54:15;;;;;;;3.72;2.85;;;;;;;;;;10307969;28;20075;-63
2022/09/09 06:59:15;;;;;;;4.20;2.65;;;;;;;;;;10290540;28;20525;-62
2022/09/09 07:04:17;;;;;;;4.40;3.08;;;;;;;;;;10286577;28;20481;-63
2022/09/09 07:09:16;;;;;;;4.18;2.63;;;;;;;;;;10289917;28;20524;-63
2022/09/09 07:14:17;;;;;;;8.60;2.47;;;;;;;;;;10306679;28;20068;-62
2022/09/09 07:19:20;;;;;;;3.58;2.47;;;;;;;;;;10292695;28;20469;-62
2022/09/09 07:24:22;;;;;;;3.23;2.60;;;;;;;;;;10287468;28;20414;-63
2022/09/09 07:29:20;;;;;;;5.07;2.40;;;;;;;;;;10305356;28;20079;-62
2022/09/09 07:34:22;;;;;;;4.15;3.17;;;;;;;;;;10293096;28;20095;-62
2022/09/09 07:39:21;;;;;;;3.50;2.50;;;;;;;;;;10293440;28;20053;-62
2022/09/09 07:44:24;;;;;;;6.57;2.90;;;;;;;;;;10287616;28;20063;-62
2022/09/09 07:49:41;;;;;;;2.92;2.40;;;;;;;;;;10291590;28;20084;-61
2022/09/09 07:54:40;;;;;;;6.35;2.90;;;;;;;;;;10305018;28;20048;-61
2022/09/09 07:59:38;;;;;;;4.65;2.45;;;;;;;;;;10286911;28;20041;-62
2022/09/09 08:04:36;;;;;;;9.27;3.15;;;;;;;;;;10305822;28;20496;-62
2022/09/09 08:09:36;;;;;;;5.82;3.47;;;;;;;;;;10301300;28;20048;-62
2022/09/09 08:14:40;;;;;;;3.10;2.80;;;;;;;;;;10296761;28;20499;-62
2022/09/09 08:19:39;;;;;;;8.02;2.65;;;;;;;;;;10297070;28;20036;-60
2022/09/09 08:24:43;;;;;;;;;;;;;;;;;;10287441;28;20047;-61
2022/09/09 08:29:42;;;;;;;9.68;3.72;;;;;;;;;;10285786;28;19971;-61
2022/09/09 08:34:41;;;;;;;22.38;4.07;;;;;;;;;;10304437;28;20063;-62
2022/09/09 08:39:48;;;;;;;7.50;4.47;;;;;;;;;;10299326;28;20426;-62
2022/09/09 08:44:51;;;;;;;;;;;;;;;;;;10316836;28;20059;-62
2022/09/09 08:49:56;;;;;;;9.45;4.30;;;;;;;;;;10315627;28;19931;-61
2022/09/09 08:54:56;;;;;;;6.28;3.35;;;;;;;;;;10305642;28;20076;-63
2022/09/09 08:59:57;;;;;;;7.07;3.65;;;;;;;;;;10276453;28;20075;-61
2022/09/09 09:05:03;;;;;;;12.50;3.58;;;;;;;;;;10274901;28;20052;-62
2022/09/09 09:10:04;;;;;;;7.80;3.75;;;;;;;;;;10274758;28;20425;-61
2022/09/09 09:15:25;;;;;;;5.47;3.85;;;;;;;;;;10258382;28;20049;-62
2022/09/09 09:20:36;;;;;;;4.03;3.08;;;;;;;;;;10274756;28;20052;-62
2022/09/09 09:25:36;;;;;;;5.78;3.30;;;;;;;;;;10276112;28;20549;-62
2022/09/09 09:30:36;;;;;;;6.63;3.08;;;;;;;;;;10274478;28;20080;-61
2022/09/09 09:35:39;;;;;;;4.97;3.17;;;;;;;;;;10274682;28;20049;-62
2022/09/09 09:40:49;;;;;;;5.63;2.88;;;;;;;;;;10273839;28;20055;-62
2022/09/09 09:45:48;;;;;;;6.13;3.85;;;;;;;;;;10275042;28;20045;-62
2022/09/09 09:51:10;;;;;;;5.20;3.45;;;;;;;;;;10273837;28;20431;-62
2022/09/09 09:56:10;;;;;;;4.68;3.38;;;;;;;;;;10273780;28;20049;-62
2022/09/09 10:01:20;;;;;;;7.03;3.10;;;;;;;;;;10273637;28;20158;-61
2022/09/09 10:06:29;;;;;;;6.43;5.15;;;;;;;;;;10275841;28;20083;-62
2022/09/09 10:11:36;;;;;;;6.15;4.50;;;;;;;;;;10274522;28;20084;-63
2022/09/09 10:16:40;;;;;;;5.13;3.47;;;;;;;;;;10275583;28;20052;-62
2022/09/09 10:21:48;;;;;;;5.30;2.90;;;;;;;;;;10275680;28;20084;-61
2022/09/09 10:26:48;;;;;;;4.97;4.00;;;;;;;;;;10275785;28;20048;-62
2022/09/09 10:31:52;;;;;;;5.63;3.58;;;;;;;;;;10279501;28;20076;-61
2022/09/09 10:36:50;;;;;;;;;;;;;;;;;;10316591;28;20040;-63
2022/09/09 10:41:54;;;;;;;3.75;3.40;;;;;;;;;;10315616;28;19951;-63
2022/09/09 10:46:56;;;;;;;4.50;3.15;;;;;;;;;;10314945;28;20493;-61
2022/09/09 10:52:01;;;;;;;3.78;2.60;;;;;;;;;;10315440;28;20064;-63
2022/09/09 10:57:05;;;;;;;4.10;3.70;;;;;;;;;;10314724;28;20279;-62
2022/09/09 11:02:08;;;;;;;4.03;3.07;;;;;;;;;;10315815;28;20041;-62
2022/09/09 11:07:07;;;;;;;4.28;3.13;;;;;;;;;;10315612;28;20052;-63
2022/09/09 11:12:13;;;;;;;5.77;2.70;;;;;;;;;;10314956;28;20076;-62
2022/09/09 11:17:13;;;;;;;4.80;4.20;;;;;;;;;;10315273;28;20052;-62
2022/09/09 11:22:17;;;;;;;4.53;3.50;;;;;;;;;;10314808;28;20055;-62
2022/09/09 11:27:18;;;;;;;6.95;4.10;;;;;;;;;;10314121;28;20079;-62
2022/09/09 11:32:23;;;;;;;6.93;3.75;;;;;;;;;;10314583;28;20088;-62
2022/09/09 11:37:29;;;;;;;5.63;3.35;;;;;;;;;;10321541;28;20052;-61
2022/09/09 11:42:29;;;;;;;6.10;3.70;;;;;;;;;;10321852;28;20052;-61
2022/09/09 11:47:29;;;;;;;7.78;4.03;;;;;;;;;;10321492;28;20041;-61
2022/09/09 11:52:36;;;;;;;7.35;3.83;;;;;;;;;;10321253;28;20076;-61
2022/09/09 11:57:37;;;;;;;5.03;3.53;;;;;;;;;;10320527;28;20067;-62
2022/09/09 12:02:36;;;;;;;9.20;4.63;;;;;;;;;;10320853;28;20338;-62
2022/09/09 12:07:36;;;;;;;7.85;4.57;;;;;;;;;;10321276;28;20041;-62
2022/09/09 12:12:36;;;;;;;5.78;4.05;;;;;;;;;;10321148;28;20080;-61
2022/09/09 12:17:42;;;;;;;3.92;3.17;;;;;;;;;;10320886;28;20045;-62
2022/09/09 12:22:48;;;;;;;10.23;6.40;;;;;;;;;;10320456;28;20091;-63
2022/09/09 12:27:56;;;;;;;7.45;3.60;;;;;;;;;;10319559;28;20076;-61
2022/09/09 12:33:00;;;;;;;5.57;3.92;;;;;;;;;;10319594;28;20199;-62
2022/09/09 12:37:59;;;;;;;11.88;4.15;;;;;;;;;;10320207;28;20485;-61
2022/09/09 12:43:01;;;;;;;7.38;4.65;;;;;;;;;;10318994;28;20037;-62
2022/09/09 12:48:01;;;;;;;7.80;4.60;;;;;;;;;;10300374;28;20050;-62
2022/09/09 12:53:00;;;;;;;4.55;3.85;;;;;;;;;;10318548;28;20523;-61
2022/09/09 12:58:00;;;;;;;5.53;3.72;;;;;;;;;;10318955;28;20045;-61
2022/09/09 13:03:00;;;;;;;7.63;4.82;;;;;;;;;;10318249;28;20052;-62
2022/09/09 13:08:02;;;;;;;7.28;4.72;;;;;;;;;;10319100;28;20067;-63
2022/09/09 13:13:02;;;;;;;7.90;3.67;;;;;;;;;;10316999;28;20088;-62
2022/09/09 13:18:03;;;;;;;4.82;4.07;;;;;;;;;;10318411;28;20047;-62
2022/09/09 13:23:02;;;;;;;7.47;4.10;;;;;;;;;;10317246;28;20091;-62
2022/09/09 13:28:02;;;;;;;6.93;3.40;;;;;;;;;;10316872;28;20430;-61
2022/09/09 13:33:02;;;;;;;10.50;4.32;;;;;;;;;;10317128;28;20060;-62
2022/09/09 13:38:08;;;;;;;9.68;5.35;;;;;;;;;;10316364;28;20044;-61
2022/09/09 13:43:06;;;;;;;12.38;3.60;;;;;;;;;;10316303;28;20072;-61
2022/09/09 13:48:13;;;;;;;13.45;4.88;;;;;;;;;;10317522;28;20040;-61
2022/09/09 13:53:11;;;;;;;8.20;4.43;;;;;;;;;;10316041;28;20091;-61
2022/09/09 13:58:18;;;;;;;5.03;4.30;;;;;;;;;;10315518;28;20036;-61
2022/09/09 14:03:17;;;;;;;11.18;4.30;;;;;;;;;;10317317;28;20052;-62
2022/09/09 14:08:17;;;;;;;10.43;5.15;;;;;;;;;;10315813;28;20044;-62
2022/09/09 14:13:16;;;;;;;7.50;4.45;;;;;;;;;;10315537;28;20194;-62
2022/09/09 14:18:14;;;;;;;4.97;4.10;;;;;;;;;;10315879;28;20075;-61
2022/09/09 14:23:15;;;;;;;10.70;5.18;;;;;;;;;;10316218;28;20083;-61
2022/09/09 14:28:14;;;;;;;14.98;6.22;;;;;;;;;;10314632;28;20437;-62
2022/09/09 14:33:13;;;;;;;6.82;4.68;;;;;;;;;;10315355;28;20087;-61
2022/09/09 14:38:14;;;;;;;8.40;4.80;;;;;;;;;;10316144;28;20414;-60
2022/09/09 14:43:17;;;;;;;11.73;4.90;;;;;;;;;;10323380;28;20318;-61
2022/09/09 14:48:15;;;;;;;8.95;5.95;;;;;;;;;;10352014;28;20083;-62
2022/09/09 14:53:14;;;;;;;13.77;5.10;;;;;;;;;;10351624;28;20071;-60
2022/09/09 14:58:13;;;;;;;11.02;5.00;;;;;;;;;;10350422;28;20060;-60
2022/09/09 15:03:12;;;;;;;21.33;5.40;;;;;;;;;;10353324;28;20064;-60
2022/09/09 15:08:11;;;;;;;13.45;6.07;;;;;;;;;;10355081;28;20044;-61
2022/09/09 15:13:09;;;;;;;19.65;7.13;;;;;;;;;;10359068;28;20079;-60
2022/09/09 15:18:07;;;;;;;22.17;7.60;;;;;;;;;;10357929;28;20079;-61
2022/09/09 15:23:08;;;;;;;20.88;7.88;;;;;;;;;;10363317;28;20064;-60
2022/09/09 15:28:07;;;;;;;56.15;30.95;;;;;;;;;;10359960;28;20072;-61
2022/09/09 15:33:08;;;;;;;17.27;9.07;;;;;;;;;;10359816;28;20094;-60
2022/09/09 15:38:12;;;;;;;16.75;12.80;;;;;;;;;;10347031;28;20068;-60
2022/09/09 15:43:12;;;;;;;19.58;9.43;;;;;;;;;;10355868;28;20516;-60
2022/09/09 15:48:11;;;;;;;16.52;10.20;;;;;;;;;;10359332;28;20075;-61
2022/09/09 15:53:11;;;;;;;18.42;7.80;;;;;;;;;;10357305;28;20064;-61
2022/09/09 15:58:12;;;;;;;14.10;8.10;;;;;;;;;;10358815;28;20520;-61
2022/09/09 16:03:12;;;;;;;11.85;8.93;;;;;;;;;;10359211;28;20066;-61
2022/09/09 16:08:11;;;;;;;8.50;6.65;;;;;;;;;;10357912;28;20068;-62
2022/09/09 16:13:10;;;;;;;9.60;5.18;;;;;;;;;;10358754;28;20493;-61
2022/09/09 16:18:08;;;;;;;12.55;6.55;;;;;;;;;;10360001;28;20509;-60
2022/09/09 16:23:06;;;;;;;14.90;10.95;;;;;;;;;;10352664;28;20076;-59
2022/09/09 16:28:06;;;;;;;16.45;7.00;;;;;;;;;;10359348;28;20039;-63
2022/09/09 16:33:04;;;;;;;13.20;6.15;;;;;;;;;;10357743;28;20490;-62
2022/09/09 16:38:02;;;;;;;9.07;5.72;;;;;;;;;;10358701;28;20060;-62
2022/09/09 16:43:01;;;;;;;10.43;5.45;;;;;;;;;;10332159;28;20167;-63
2022/09/09 16:48:01;;;;;;;12.45;6.45;;;;;;;;;;10357043;28;20048;-63
2022/09/09 16:52:59;;;;;;;15.32;8.60;;;;;;;;;;10286988;28;20089;-62
2022/09/09 16:57:57;;;;;;;8.18;5.70;;;;;;;;;;10234790;28;20104;-63
2022/09/09 17:02:55;;;;;;;12.30;9.98;;;;;;;;;;10233103;28;20084;-62
2022/09/09 17:07:57;;;;;;;13.88;8.35;;;;;;;;;;10221132;23;20084;-63
2022/09/09 17:12:56;;;;;;;16.73;9.35;;;;;;;;;;10214063;28;20073;-63
2022/09/09 17:17:54;;;;;;;7.72;5.00;;;;;;;;;;10209289;28;20081;-63
2022/09/09 17:22:53;;;;;;;5.28;3.95;;;;;;;;;;10204297;28;20082;-63
2022/09/09 17:27:53;;;;;;;8.23;6.05;;;;;;;;;;10191008;28;20082;-64
2022/09/09 17:32:51;;;;;;;13.82;6.72;;;;;;;;;;10224538;28;20076;-63
2022/09/09 17:37:49;;;;;;;9.43;5.65;;;;;;;;;;10204616;28;20069;-62
2022/09/09 17:42:47;;;;;;;6.30;5.07;;;;;;;;;;10225332;28;20058;-64
2022/09/09 17:47:48;;;;;;;9.98;6.20;;;;;;;;;;10203613;28;20046;-63
2022/09/09 17:52:46;;;;;;;11.75;6.80;;;;;;;;;;10197550;28;20088;-63
2022/09/09 17:57:45;;;;;;;10.07;5.47;;;;;;;;;;10192239;28;20065;-64
2022/09/09 18:02:44;;;;;;;10.70;7.85;;;;;;;;;;10194087;28;20077;-62
2022/09/09 18:07:43;;;;;;;5.43;3.80;;;;;;;;;;10192050;28;20087;-63
2022/09/09 18:12:41;;;;;;;13.13;8.35;;;;;;;;;;10203654;28;20073;-64
2022/09/09 18:17:40;;;;;;;16.02;6.85;;;;;;;;;;10201964;28;20599;-64
2022/09/09 18:22:38;;;;;;;10.02;7.15;;;;;;;;;;10191493;28;20092;-63
2022/09/09 18:27:37;;;;;;;9.68;6.45;;;;;;;;;;10231643;28;20080;-63
2022/09/09 18:32:36;;;;;;;9.95;5.97;;;;;;;;;;10193418;28;20077;-65
2022/09/09 18:37:35;;;;;;;10.05;6.63;;;;;;;;;;10198398;28;20475;-62
2022/09/09 18:42:33;;;;;;;12.63;6.57;;;;;;;;;;10193401;28;20066;-63
2022/09/09 18:47:33;;;;;;;16.27;5.47;;;;;;;;;;10241262;28;20049;-63
2022/09/09 18:52:31;;;;;;;12.05;7.10;;;;;;;;;;10200938;28;20077;-63
2022/09/09 18:57:29;;;;;;;14.40;5.85;;;;;;;;;;10198833;28;20515;-62
2022/09/09 19:02:34;;;;;;;12.75;6.50;;;;;;;;;;10199403;28;20065;-63
2022/09/09 19:07:33;;;;;;;7.05;5.93;;;;;;;;;;10198545;28;20092;-62
2022/09/09 19:12:31;;;;;;;14.20;5.90;;;;;;;;;;10199036;28;20088;-62
2022/09/09 19:17:30;;;;;;;8.25;5.90;;;;;;;;;;10198656;28;20508;-62
2022/09/09 19:22:30;;;;;;;20.67;7.45;;;;;;;;;;10198146;28;20084;-62
2022/09/09 19:27:28;;;;;;;12.50;6.78;;;;;;;;;;10196951;28;20077;-62
2022/09/09 19:32:26;;;;;;;11.35;6.32;;;;;;;;;;10197858;28;20455;-62
2022/09/09 19:37:46;;;;;;;9.57;5.75;;;;;;;;;;10162505;28;20089;-63
2022/09/09 19:42:44;;;;;;;6.72;5.65;;;;;;;;;;10203111;28;20057;-63
2022/09/09 19:47:42;;;;;;;11.38;6.18;;;;;;;;;;10237126;28;20077;-63
2022/09/09 19:52:41;;;;;;;10.63;5.10;;;;;;;;;;10197833;28;20053;-62
2022/09/09 19:57:40;;;;;;;8.63;6.15;;;;;;;;;;10207679;28;20085;-64
2022/09/09 20:02:39;;;;;;;6.72;4.72;;;;;;;;;;10239121;28;20077;-64
2022/09/09 20:07:37;;;;;;;6.53;4.57;;;;;;;;;;10238846;28;20061;-64
2022/09/09 20:12:35;;;;;;;7.13;5.28;;;;;;;;;;10237912;28;20045;-63
2022/09/09 20:17:35;;;;;;;9.30;5.05;;;;;;;;;;10199662;28;20077;-63
2022/09/09 20:22:33;;;;;;;7.85;4.40;;;;;;;;;;10221441;28;20080;-63
2022/09/09 20:27:32;;;;;;;7.88;4.65;;;;;;;;;;10220805;28;20077;-64
2022/09/09 20:32:30;;;;;;;12.57;4.15;;;;;;;;;;10197280;28;20464;-64
2022/09/09 20:37:30;;;;;;;5.90;4.47;;;;;;;;;;10197074;28;20077;-64
2022/09/09 20:42:28;;;;;;;6.18;4.45;;;;;;;;;;10237882;28;20069;-64
2022/09/09 20:47:27;;;;;;;6.72;4.75;;;;;;;;;;10196131;28;20447;-64
2022/09/09 20:52:25;;;;;;;5.72;4.50;;;;;;;;;;10218658;28;20050;-64
2022/09/09 20:57:24;;;;;;;9.55;4.50;;;;;;;;;;10157521;28;20082;-64
2022/09/09 21:02:22;;;;;;;6.78;5.00;;;;;;;;;;10157225;28;20073;-64
2022/09/09 21:07:21;;;;;;;10.13;4.63;;;;;;;;;;10239083;28;20164;-64
2022/09/09 21:12:19;;;;;;;7.85;4.43;;;;;;;;;;10196734;28;20120;-64
2022/09/09 21:17:18;;;;;;;8.05;5.40;;;;;;;;;;10233355;28;20073;-64
2022/09/09 21:22:17;;;;;;;8.48;5.55;;;;;;;;;;10191754;28;20084;-64
2022/09/09 21:27:15;;;;;;;7.25;5.15;;;;;;;;;;10230740;28;20559;-64
2022/09/09 21:32:13;;;;;;;8.57;4.80;;;;;;;;;;10194888;28;20057;-64
2022/09/09 21:37:13;;;;;;;5.43;4.80;;;;;;;;;;10234847;28;20069;-62
2022/09/09 21:42:12;;;;;;;7.78;5.68;;;;;;;;;;10195367;28;20057;-64
2022/09/09 21:47:11;;;;;;;9.60;5.72;;;;;;;;;;10216252;28;20076;-63
2022/09/09 21:52:09;;;;;;;8.30;6.80;;;;;;;;;;10193056;28;20088;-64
2022/09/09 21:57:08;;;;;;;10.05;7.07;;;;;;;;;;10194932;28;20456;-65
2022/09/09 22:02:07;;;;;;;11.75;7.95;;;;;;;;;;10194920;28;20053;-64
2022/09/09 22:07:05;;;;;;;12.10;8.63;;;;;;;;;;10194362;28;20077;-65
2022/09/09 22:12:04;;;;;;;7.88;5.72;;;;;;;;;;10194387;28;20411;-64
2022/09/09 22:17:04;;;;;;;8.27;5.07;;;;;;;;;;10193710;28;20085;-64
2022/09/09 22:22:02;;;;;;;9.63;5.13;;;;;;;;;;10194101;28;20050;-64
2022/09/09 22:27:00;;;;;;;7.80;5.28;;;;;;;;;;10194818;28;20041;-64
2022/09/09 22:31:58;;;;;;;8.60;4.88;;;;;;;;;;10194629;28;20046;-64
2022/09/09 22:36:58;;;;;;;6.72;4.88;;;;;;;;;;10194304;28;20069;-65
2022/09/09 22:41:56;;;;;;;5.57;4.43;;;;;;;;;;10195353;28;20428;-64
2022/09/09 22:46:55;;;;;;;11.20;4.05;;;;;;;;;;10192684;28;20054;-64
2022/09/09 22:51:53;;;;;;;9.20;3.65;;;;;;;;;;10192720;28;20072;-64
2022/09/09 22:56:53;;;;;;;6.60;3.72;;;;;;;;;;10194558;28;20084;-64
2022/09/09 23:01:51;;;;;;;3.95;3.33;;;;;;;;;;10193054;28;20053;-64
2022/09/09 23:06:50;;;;;;;5.85;2.90;;;;;;;;;;10193510;28;20372;-65
2022/09/09 23:11:48;;;;;;;4.00;2.53;;;;;;;;;;10192552;28;20177;-64
2022/09/09 23:16:51;;;;;;;4.63;3.00;;;;;;;;;;10176227;28;20504;-64
2022/09/09 23:21:49;;;;;;;6.40;2.80;;;;;;;;;;10193062;28;20424;-63
2022/09/09 23:26:47;;;;;;;6.38;3.22;;;;;;;;;;10193311;28;20069;-63
2022/09/09 23:31:46;;;;;;;5.20;3.10;;;;;;;;;;10198801;28;20062;-64
2022/09/09 23:36:46;;;;;;;4.63;2.65;;;;;;;;;;10199437;28;20092;-64
2022/09/09 23:41:44;;;;;;;4.72;2.63;;;;;;;;;;10199877;28;20080;-63
2022/09/09 23:46:42;;;;;;;3.95;2.55;;;;;;;;;;10200247;28;20037;-64
2022/09/09 23:51:40;;;;;;;2.97;2.30;;;;;;;;;;10199464;28;20042;-63
2022/09/09 23:56:41;;;;;;;3.33;2.38;;;;;;;;;;10198848;28;20077;-64
